sensor_id;sensor_type;location;lat;lon;timestamp;P1;durP1;ratioP1;P2;durP2;ratioP2
40515;SDS011;26216;53.724;9.898;2022-08-21T00:01:02;2.25;;;0.80;;
40515;SDS011;26216;53.724;9.898;2022-08-21T00:03:31;0.90;;;0.65;;
40515;SDS011;26216;53.724;9.898;2022-08-21T00:05:58;1.63;;;0.90;;
40515;SDS011;26216;53.724;9.898;2022-08-21T00:08:23;1.30;;;0.70;;
40515;SDS011;26216;53.724;9.898;2022-08-21T00:10:49;1.92;;;0.90;;
40515;SDS011;26216;53.724;9.898;2022-08-21T00:13:16;0.98;;;0.75;;
40515;SDS011;26216;53.724;9.898;2022-08-21T00:15:43;1.58;;;0.90;;
40515;SDS011;26216;53.724;9.898;2022-08-21T00:18:09;2.63;;;0.77;;
40515;SDS011;26216;53.724;9.898;2022-08-21T00:20:38;1.67;;;1.13;;
40515;SDS011;26216;53.724;9.898;2022-08-21T00:23:06;1.30;;;0.70;;
40515;SDS011;26216;53.724;9.898;2022-08-21T00:25:32;1.60;;;0.93;;
40515;SDS011;26216;53.724;9.898;2022-08-21T00:27:58;1.35;;;0.90;;
40515;SDS011;26216;53.724;9.898;2022-08-21T00:30:25;1.95;;;1.10;;
40515;SDS011;26216;53.724;9.898;2022-08-21T00:32:52;2.00;;;1.15;;
40515;SDS011;26216;53.724;9.898;2022-08-21T00:35:24;2.50;;;1.25;;
40515;SDS011;26216;53.724;9.898;2022-08-21T00:37:58;2.42;;;1.40;;
40515;SDS011;26216;53.724;9.898;2022-08-21T00:40:33;3.53;;;2.03;;
40515;SDS011;26216;53.724;9.898;2022-08-21T00:43:02;2.95;;;2.10;;
40515;SDS011;26216;53.724;9.898;2022-08-21T00:45:30;3.28;;;2.15;;
40515;SDS011;26216;53.724;9.898;2022-08-21T00:47:57;3.92;;;2.60;;
40515;SDS011;26216;53.724;9.898;2022-08-21T00:50:24;5.25;;;2.47;;
40515;SDS011;26216;53.724;9.898;2022-08-21T00:52:54;3.53;;;2.40;;
40515;SDS011;26216;53.724;9.898;2022-08-21T00:55:20;3.03;;;2.50;;
40515;SDS011;26216;53.724;9.898;2022-08-21T00:57:49;3.95;;;2.40;;
40515;SDS011;26216;53.724;9.898;2022-08-21T01:00:19;3.80;;;1.90;;
40515;SDS011;26216;53.724;9.898;2022-08-21T01:02:49;3.30;;;2.05;;
40515;SDS011;26216;53.724;9.898;2022-08-21T01:05:15;3.53;;;2.08;;
40515;SDS011;26216;53.724;9.898;2022-08-21T01:07:42;2.63;;;1.50;;
40515;SDS011;26216;53.724;9.898;2022-08-21T01:10:09;2.72;;;1.67;;
40515;SDS011;26216;53.724;9.898;2022-08-21T01:12:36;3.58;;;1.88;;
40515;SDS011;26216;53.724;9.898;2022-08-21T01:15:03;4.03;;;2.15;;
40515;SDS011;26216;53.724;9.898;2022-08-21T01:17:31;2.67;;;1.60;;
40515;SDS011;26216;53.724;9.898;2022-08-21T01:19:58;2.50;;;1.40;;
40515;SDS011;26216;53.724;9.898;2022-08-21T01:22:25;3.85;;;1.92;;
40515;SDS011;26216;53.724;9.898;2022-08-21T01:24:51;5.50;;;2.63;;
40515;SDS011;26216;53.724;9.898;2022-08-21T01:27:17;4.50;;;2.40;;
40515;SDS011;26216;53.724;9.898;2022-08-21T01:29:49;4.95;;;2.70;;
40515;SDS011;26216;53.724;9.898;2022-08-21T01:32:20;5.30;;;2.70;;
40515;SDS011;26216;53.724;9.898;2022-08-21T01:34:47;4.15;;;2.45;;
40515;SDS011;26216;53.724;9.898;2022-08-21T01:37:14;5.55;;;2.75;;
40515;SDS011;26216;53.724;9.898;2022-08-21T01:39:43;4.68;;;2.60;;
40515;SDS011;26216;53.724;9.898;2022-08-21T01:42:09;4.32;;;2.35;;
40515;SDS011;26216;53.724;9.898;2022-08-21T01:44:35;3.47;;;2.40;;
40515;SDS011;26216;53.724;9.898;2022-08-21T01:47:03;3.42;;;1.92;;
40515;SDS011;26216;53.724;9.898;2022-08-21T01:49:32;3.92;;;2.00;;
40515;SDS011;26216;53.724;9.898;2022-08-21T01:51:59;3.47;;;2.17;;
40515;SDS011;26216;53.724;9.898;2022-08-21T01:54:25;2.58;;;1.63;;
40515;SDS011;26216;53.724;9.898;2022-08-21T01:56:52;2.63;;;1.63;;
40515;SDS011;26216;53.724;9.898;2022-08-21T01:59:19;2.40;;;1.55;;
40515;SDS011;26216;53.724;9.898;2022-08-21T02:01:46;2.70;;;1.75;;
40515;SDS011;26216;53.724;9.898;2022-08-21T02:04:12;2.58;;;1.30;;
40515;SDS011;26216;53.724;9.898;2022-08-21T02:06:38;3.88;;;1.88;;
40515;SDS011;26216;53.724;9.898;2022-08-21T02:09:05;2.80;;;1.52;;
40515;SDS011;26216;53.724;9.898;2022-08-21T02:11:33;3.10;;;1.63;;
40515;SDS011;26216;53.724;9.898;2022-08-21T02:13:59;2.85;;;1.38;;
40515;SDS011;26216;53.724;9.898;2022-08-21T02:16:25;2.88;;;1.20;;
40515;SDS011;26216;53.724;9.898;2022-08-21T02:18:51;2.70;;;1.60;;
40515;SDS011;26216;53.724;9.898;2022-08-21T02:21:17;2.88;;;1.30;;
40515;SDS011;26216;53.724;9.898;2022-08-21T02:23:43;2.38;;;1.20;;
40515;SDS011;26216;53.724;9.898;2022-08-21T02:26:09;2.38;;;1.05;;
40515;SDS011;26216;53.724;9.898;2022-08-21T02:28:35;1.52;;;1.08;;
40515;SDS011;26216;53.724;9.898;2022-08-21T02:31:02;1.85;;;1.23;;
40515;SDS011;26216;53.724;9.898;2022-08-21T02:33:28;1.80;;;1.10;;
40515;SDS011;26216;53.724;9.898;2022-08-21T02:35:54;2.88;;;1.40;;
40515;SDS011;26216;53.724;9.898;2022-08-21T02:38:23;2.78;;;1.20;;
40515;SDS011;26216;53.724;9.898;2022-08-21T02:40:51;1.80;;;1.10;;
40515;SDS011;26216;53.724;9.898;2022-08-21T02:43:19;2.22;;;1.00;;
40515;SDS011;26216;53.724;9.898;2022-08-21T02:45:46;3.40;;;1.40;;
40515;SDS011;26216;53.724;9.898;2022-08-21T02:48:15;1.77;;;1.02;;
40515;SDS011;26216;53.724;9.898;2022-08-21T02:50:48;1.77;;;0.90;;
40515;SDS011;26216;53.724;9.898;2022-08-21T02:53:33;1.55;;;1.08;;
40515;SDS011;26216;53.724;9.898;2022-08-21T02:56:01;2.03;;;0.95;;
40515;SDS011;26216;53.724;9.898;2022-08-21T02:58:32;2.15;;;1.10;;
40515;SDS011;26216;53.724;9.898;2022-08-21T03:00:59;2.38;;;1.10;;
40515;SDS011;26216;53.724;9.898;2022-08-21T03:03:26;1.52;;;1.17;;
40515;SDS011;26216;53.724;9.898;2022-08-21T03:05:53;1.13;;;0.80;;
40515;SDS011;26216;53.724;9.898;2022-08-21T03:08:19;2.15;;;1.10;;
40515;SDS011;26216;53.724;9.898;2022-08-21T03:10:48;1.92;;;1.23;;
40515;SDS011;26216;53.724;9.898;2022-08-21T03:13:15;1.63;;;0.80;;
40515;SDS011;26216;53.724;9.898;2022-08-21T03:15:42;1.95;;;1.10;;
40515;SDS011;26216;53.724;9.898;2022-08-21T03:18:09;1.27;;;0.90;;
40515;SDS011;26216;53.724;9.898;2022-08-21T03:20:36;1.80;;;1.40;;
40515;SDS011;26216;53.724;9.898;2022-08-21T03:23:04;1.70;;;1.00;;
40515;SDS011;26216;53.724;9.898;2022-08-21T03:25:31;1.70;;;0.93;;
40515;SDS011;26216;53.724;9.898;2022-08-21T03:27:59;1.38;;;1.00;;
40515;SDS011;26216;53.724;9.898;2022-08-21T03:30:26;1.58;;;0.88;;
40515;SDS011;26216;53.724;9.898;2022-08-21T03:32:51;1.08;;;0.82;;
40515;SDS011;26216;53.724;9.898;2022-08-21T03:35:18;1.08;;;0.82;;
40515;SDS011;26216;53.724;9.898;2022-08-21T03:37:45;1.50;;;0.82;;
40515;SDS011;26216;53.724;9.898;2022-08-21T03:40:13;1.45;;;0.95;;
40515;SDS011;26216;53.724;9.898;2022-08-21T03:42:40;1.30;;;0.90;;
40515;SDS011;26216;53.724;9.898;2022-08-21T03:45:06;2.30;;;1.00;;
40515;SDS011;26216;53.724;9.898;2022-08-21T03:47:33;2.30;;;1.10;;
40515;SDS011;26216;53.724;9.898;2022-08-21T03:50:00;1.20;;;0.82;;
40515;SDS011;26216;53.724;9.898;2022-08-21T03:52:26;1.17;;;0.80;;
40515;SDS011;26216;53.724;9.898;2022-08-21T03:54:52;1.50;;;0.90;;
40515;SDS011;26216;53.724;9.898;2022-08-21T03:57:18;1.40;;;1.00;;
40515;SDS011;26216;53.724;9.898;2022-08-21T03:59:44;0.90;;;0.80;;
40515;SDS011;26216;53.724;9.898;2022-08-21T04:02:10;2.05;;;1.23;;
40515;SDS011;26216;53.724;9.898;2022-08-21T04:04:36;1.50;;;1.23;;
40515;SDS011;26216;53.724;9.898;2022-08-21T04:07:02;1.45;;;1.00;;
40515;SDS011;26216;53.724;9.898;2022-08-21T04:09:28;1.35;;;1.02;;
40515;SDS011;26216;53.724;9.898;2022-08-21T04:11:55;1.77;;;1.05;;
40515;SDS011;26216;53.724;9.898;2022-08-21T04:14:22;1.80;;;1.00;;
40515;SDS011;26216;53.724;9.898;2022-08-21T04:16:48;1.55;;;0.90;;
40515;SDS011;26216;53.724;9.898;2022-08-21T04:19:14;1.80;;;1.05;;
40515;SDS011;26216;53.724;9.898;2022-08-21T04:21:40;1.48;;;1.13;;
40515;SDS011;26216;53.724;9.898;2022-08-21T04:24:07;1.17;;;0.93;;
40515;SDS011;26216;53.724;9.898;2022-08-21T04:26:35;1.95;;;1.00;;
40515;SDS011;26216;53.724;9.898;2022-08-21T04:29:02;1.50;;;0.90;;
40515;SDS011;26216;53.724;9.898;2022-08-21T04:31:31;1.77;;;1.02;;
40515;SDS011;26216;53.724;9.898;2022-08-21T04:34:01;1.00;;;0.80;;
40515;SDS011;26216;53.724;9.898;2022-08-21T04:36:28;2.40;;;1.20;;
40515;SDS011;26216;53.724;9.898;2022-08-21T04:38:54;4.30;;;1.42;;
40515;SDS011;26216;53.724;9.898;2022-08-21T04:41:20;1.60;;;1.20;;
40515;SDS011;26216;53.724;9.898;2022-08-21T04:43:46;2.47;;;1.00;;
40515;SDS011;26216;53.724;9.898;2022-08-21T04:46:12;1.48;;;0.90;;
40515;SDS011;26216;53.724;9.898;2022-08-21T04:48:37;1.40;;;0.90;;
40515;SDS011;26216;53.724;9.898;2022-08-21T04:51:16;2.08;;;1.05;;
40515;SDS011;26216;53.724;9.898;2022-08-21T04:53:47;1.20;;;0.85;;
40515;SDS011;26216;53.724;9.898;2022-08-21T04:56:20;1.77;;;1.00;;
40515;SDS011;26216;53.724;9.898;2022-08-21T04:58:48;1.20;;;0.88;;
40515;SDS011;26216;53.724;9.898;2022-08-21T05:01:19;1.00;;;0.90;;
40515;SDS011;26216;53.724;9.898;2022-08-21T05:03:47;1.80;;;1.30;;
40515;SDS011;26216;53.724;9.898;2022-08-21T05:06:15;1.70;;;0.80;;
40515;SDS011;26216;53.724;9.898;2022-08-21T05:08:42;2.17;;;0.90;;
40515;SDS011;26216;53.724;9.898;2022-08-21T05:11:12;2.03;;;1.10;;
40515;SDS011;26216;53.724;9.898;2022-08-21T05:13:38;1.48;;;1.00;;
40515;SDS011;26216;53.724;9.898;2022-08-21T05:16:06;2.17;;;1.10;;
40515;SDS011;26216;53.724;9.898;2022-08-21T05:18:33;2.58;;;1.20;;
40515;SDS011;26216;53.724;9.898;2022-08-21T05:20:59;2.10;;;1.13;;
40515;SDS011;26216;53.724;9.898;2022-08-21T05:23:24;2.13;;;1.30;;
40515;SDS011;26216;53.724;9.898;2022-08-21T05:25:52;1.95;;;0.90;;
40515;SDS011;26216;53.724;9.898;2022-08-21T05:28:18;2.28;;;1.10;;
40515;SDS011;26216;53.724;9.898;2022-08-21T05:30:44;1.63;;;1.08;;
40515;SDS011;26216;53.724;9.898;2022-08-21T05:33:10;1.52;;;1.10;;
40515;SDS011;26216;53.724;9.898;2022-08-21T05:35:37;1.85;;;1.20;;
40515;SDS011;26216;53.724;9.898;2022-08-21T05:38:04;2.75;;;1.20;;
40515;SDS011;26216;53.724;9.898;2022-08-21T05:40:30;1.88;;;1.10;;
40515;SDS011;26216;53.724;9.898;2022-08-21T05:42:57;2.50;;;1.02;;
40515;SDS011;26216;53.724;9.898;2022-08-21T05:45:25;1.90;;;1.10;;
40515;SDS011;26216;53.724;9.898;2022-08-21T05:47:53;2.33;;;1.10;;
40515;SDS011;26216;53.724;9.898;2022-08-21T05:50:19;3.22;;;1.40;;
40515;SDS011;26216;53.724;9.898;2022-08-21T05:52:45;3.03;;;1.50;;
40515;SDS011;26216;53.724;9.898;2022-08-21T05:55:11;1.42;;;1.08;;
40515;SDS011;26216;53.724;9.898;2022-08-21T05:57:37;2.25;;;1.10;;
40515;SDS011;26216;53.724;9.898;2022-08-21T06:00:06;1.88;;;1.15;;
40515;SDS011;26216;53.724;9.898;2022-08-21T06:02:34;1.95;;;1.20;;
40515;SDS011;26216;53.724;9.898;2022-08-21T06:05:00;3.15;;;1.38;;
40515;SDS011;26216;53.724;9.898;2022-08-21T06:07:26;2.47;;;1.20;;
40515;SDS011;26216;53.724;9.898;2022-08-21T06:09:52;1.25;;;0.90;;
40515;SDS011;26216;53.724;9.898;2022-08-21T06:12:18;2.42;;;1.15;;
40515;SDS011;26216;53.724;9.898;2022-08-21T06:14:44;1.65;;;1.00;;
40515;SDS011;26216;53.724;9.898;2022-08-21T06:17:10;1.75;;;1.20;;
40515;SDS011;26216;53.724;9.898;2022-08-21T06:19:37;2.63;;;1.40;;
40515;SDS011;26216;53.724;9.898;2022-08-21T06:22:04;3.50;;;1.55;;
40515;SDS011;26216;53.724;9.898;2022-08-21T06:24:30;4.15;;;1.50;;
40515;SDS011;26216;53.724;9.898;2022-08-21T06:26:56;2.55;;;1.40;;
40515;SDS011;26216;53.724;9.898;2022-08-21T06:29:22;2.65;;;1.60;;
40515;SDS011;26216;53.724;9.898;2022-08-21T06:31:49;3.00;;;1.67;;
40515;SDS011;26216;53.724;9.898;2022-08-21T06:34:17;2.70;;;1.52;;
40515;SDS011;26216;53.724;9.898;2022-08-21T06:36:43;2.33;;;1.40;;
40515;SDS011;26216;53.724;9.898;2022-08-21T06:39:09;3.42;;;1.50;;
40515;SDS011;26216;53.724;9.898;2022-08-21T06:41:35;2.40;;;1.45;;
40515;SDS011;26216;53.724;9.898;2022-08-21T06:44:01;3.28;;;1.50;;
40515;SDS011;26216;53.724;9.898;2022-08-21T06:46:28;2.40;;;1.38;;
40515;SDS011;26216;53.724;9.898;2022-08-21T06:48:55;2.60;;;1.35;;
40515;SDS011;26216;53.724;9.898;2022-08-21T06:51:23;2.30;;;1.48;;
40515;SDS011;26216;53.724;9.898;2022-08-21T06:53:50;4.03;;;1.30;;
40515;SDS011;26216;53.724;9.898;2022-08-21T06:56:17;2.28;;;1.33;;
40515;SDS011;26216;53.724;9.898;2022-08-21T06:58:43;2.78;;;1.27;;
40515;SDS011;26216;53.724;9.898;2022-08-21T07:01:09;2.45;;;1.00;;
40515;SDS011;26216;53.724;9.898;2022-08-21T07:03:37;2.90;;;1.48;;
40515;SDS011;26216;53.724;9.898;2022-08-21T07:06:05;2.17;;;1.23;;
40515;SDS011;26216;53.724;9.898;2022-08-21T07:08:33;2.40;;;1.10;;
40515;SDS011;26216;53.724;9.898;2022-08-21T07:11:00;3.00;;;1.52;;
40515;SDS011;26216;53.724;9.898;2022-08-21T07:13:30;2.22;;;1.08;;
40515;SDS011;26216;53.724;9.898;2022-08-21T07:15:56;2.60;;;1.20;;
40515;SDS011;26216;53.724;9.898;2022-08-21T07:18:21;2.25;;;1.40;;
40515;SDS011;26216;53.724;9.898;2022-08-21T07:20:47;2.75;;;1.33;;
40515;SDS011;26216;53.724;9.898;2022-08-21T07:25:53;2.53;;;1.02;;
40515;SDS011;26216;53.724;9.898;2022-08-21T07:28:19;1.55;;;0.93;;
40515;SDS011;26216;53.724;9.898;2022-08-21T07:30:46;2.38;;;1.13;;
40515;SDS011;26216;53.724;9.898;2022-08-21T07:35:43;2.00;;;1.02;;
40515;SDS011;26216;53.724;9.898;2022-08-21T07:38:08;2.75;;;1.27;;
40515;SDS011;26216;53.724;9.898;2022-08-21T07:40:34;1.40;;;0.85;;
40515;SDS011;26216;53.724;9.898;2022-08-21T07:43:00;1.67;;;0.75;;
40515;SDS011;26216;53.724;9.898;2022-08-21T07:45:27;6.13;;;1.40;;
40515;SDS011;26216;53.724;9.898;2022-08-21T07:47:53;2.40;;;1.05;;
40515;SDS011;26216;53.724;9.898;2022-08-21T07:50:19;2.20;;;0.85;;
40515;SDS011;26216;53.724;9.898;2022-08-21T07:52:45;1.80;;;0.90;;
40515;SDS011;26216;53.724;9.898;2022-08-21T07:55:14;1.70;;;1.08;;
40515;SDS011;26216;53.724;9.898;2022-08-21T07:57:42;2.92;;;1.30;;
40515;SDS011;26216;53.724;9.898;2022-08-21T08:00:11;2.10;;;0.90;;
40515;SDS011;26216;53.724;9.898;2022-08-21T08:02:39;2.20;;;1.17;;
40515;SDS011;26216;53.724;9.898;2022-08-21T08:05:07;1.92;;;0.80;;
40515;SDS011;26216;53.724;9.898;2022-08-21T08:07:36;2.97;;;1.17;;
40515;SDS011;26216;53.724;9.898;2022-08-21T08:10:03;2.15;;;1.00;;
40515;SDS011;26216;53.724;9.898;2022-08-21T08:12:32;2.25;;;1.00;;
40515;SDS011;26216;53.724;9.898;2022-08-21T08:15:02;2.78;;;0.88;;
40515;SDS011;26216;53.724;9.898;2022-08-21T08:17:30;1.80;;;0.75;;
40515;SDS011;26216;53.724;9.898;2022-08-21T08:19:57;2.00;;;0.90;;
40515;SDS011;26216;53.724;9.898;2022-08-21T08:22:24;3.22;;;1.10;;
40515;SDS011;26216;53.724;9.898;2022-08-21T08:24:50;2.42;;;1.00;;
40515;SDS011;26216;53.724;9.898;2022-08-21T08:27:17;1.90;;;0.80;;
40515;SDS011;26216;53.724;9.898;2022-08-21T08:29:44;2.85;;;1.00;;
40515;SDS011;26216;53.724;9.898;2022-08-21T08:32:11;3.90;;;1.15;;
40515;SDS011;26216;53.724;9.898;2022-08-21T08:34:37;2.60;;;1.13;;
40515;SDS011;26216;53.724;9.898;2022-08-21T08:37:04;2.60;;;1.10;;
40515;SDS011;26216;53.724;9.898;2022-08-21T08:39:32;2.33;;;1.00;;
40515;SDS011;26216;53.724;9.898;2022-08-21T08:42:00;2.03;;;0.82;;
40515;SDS011;26216;53.724;9.898;2022-08-21T08:44:40;3.10;;;1.17;;
40515;SDS011;26216;53.724;9.898;2022-08-21T08:47:06;3.92;;;1.27;;
40515;SDS011;26216;53.724;9.898;2022-08-21T08:52:32;2.22;;;1.00;;
40515;SDS011;26216;53.724;9.898;2022-08-21T08:57:31;5.78;;;1.30;;
40515;SDS011;26216;53.724;9.898;2022-08-21T09:00:00;2.67;;;0.95;;
40515;SDS011;26216;53.724;9.898;2022-08-21T09:02:31;2.13;;;1.08;;
40515;SDS011;26216;53.724;9.898;2022-08-21T09:04:58;3.08;;;1.15;;
40515;SDS011;26216;53.724;9.898;2022-08-21T09:10:17;2.70;;;1.00;;
40515;SDS011;26216;53.724;9.898;2022-08-21T09:16:12;2.60;;;1.35;;
40515;SDS011;26216;53.724;9.898;2022-08-21T09:27:02;3.58;;;1.20;;
40515;SDS011;26216;53.724;9.898;2022-08-21T09:29:38;3.72;;;1.75;;
40515;SDS011;26216;53.724;9.898;2022-08-21T09:32:16;2.60;;;0.90;;
40515;SDS011;26216;53.724;9.898;2022-08-21T09:40:36;2.83;;;1.17;;
40515;SDS011;26216;53.724;9.898;2022-08-21T09:45:37;5.50;;;2.05;;
40515;SDS011;26216;53.724;9.898;2022-08-21T09:48:08;4.55;;;1.50;;
40515;SDS011;26216;53.724;9.898;2022-08-21T09:50:38;2.83;;;1.15;;
40515;SDS011;26216;53.724;9.898;2022-08-21T09:53:13;4.07;;;1.15;;
40515;SDS011;26216;53.724;9.898;2022-08-21T09:55:48;3.65;;;1.38;;
40515;SDS011;26216;53.724;9.898;2022-08-21T09:58:40;2.47;;;1.10;;
40515;SDS011;26216;53.724;9.898;2022-08-21T10:01:27;3.28;;;1.38;;
40515;SDS011;26216;53.724;9.898;2022-08-21T10:04:03;5.93;;;1.73;;
40515;SDS011;26216;53.724;9.898;2022-08-21T10:06:48;2.65;;;1.20;;
40515;SDS011;26216;53.724;9.898;2022-08-21T10:09:33;3.58;;;1.52;;
40515;SDS011;26216;53.724;9.898;2022-08-21T10:12:25;3.47;;;1.55;;
40515;SDS011;26216;53.724;9.898;2022-08-21T10:16:18;3.58;;;1.23;;
40515;SDS011;26216;53.724;9.898;2022-08-21T10:19:12;4.05;;;1.60;;
40515;SDS011;26216;53.724;9.898;2022-08-21T10:22:02;2.95;;;1.20;;
40515;SDS011;26216;53.724;9.898;2022-08-21T10:34:19;8.05;;;1.63;;
40515;SDS011;26216;53.724;9.898;2022-08-21T10:37:36;3.35;;;1.45;;
40515;SDS011;26216;53.724;9.898;2022-08-21T10:40:57;2.10;;;1.10;;
40515;SDS011;26216;53.724;9.898;2022-08-21T10:53:21;2.30;;;1.20;;
40515;SDS011;26216;53.724;9.898;2022-08-21T10:59:52;1.80;;;1.10;;
40515;SDS011;26216;53.724;9.898;2022-08-21T11:02:22;2.10;;;1.10;;
40515;SDS011;26216;53.724;9.898;2022-08-21T11:05:16;3.15;;;1.13;;
40515;SDS011;26216;53.724;9.898;2022-08-21T11:08:09;2.80;;;1.10;;
40515;SDS011;26216;53.724;9.898;2022-08-21T11:10:47;2.47;;;1.00;;
40515;SDS011;26216;53.724;9.898;2022-08-21T11:13:19;3.38;;;1.52;;
40515;SDS011;26216;53.724;9.898;2022-08-21T11:19:05;3.47;;;1.70;;
40515;SDS011;26216;53.724;9.898;2022-08-21T11:22:08;2.55;;;1.17;;
40515;SDS011;26216;53.724;9.898;2022-08-21T11:24:44;1.58;;;1.23;;
40515;SDS011;26216;53.724;9.898;2022-08-21T11:29:52;2.42;;;1.30;;
40515;SDS011;26216;53.724;9.898;2022-08-21T13:48:25;2.38;;;0.90;;
40515;SDS011;26216;53.724;9.898;2022-08-21T13:51:12;2.20;;;1.33;;
40515;SDS011;26216;53.724;9.898;2022-08-21T13:58:46;2.10;;;0.90;;
40515;SDS011;26216;53.724;9.898;2022-08-21T14:03:50;1.58;;;0.77;;
40515;SDS011;26216;53.724;9.898;2022-08-21T14:06:20;3.00;;;0.70;;
40515;SDS011;26216;53.724;9.898;2022-08-21T14:08:52;1.83;;;0.80;;
40515;SDS011;26216;53.724;9.898;2022-08-21T14:11:25;1.50;;;0.75;;
40515;SDS011;26216;53.724;9.898;2022-08-21T14:16:27;2.13;;;1.05;;
40515;SDS011;26216;53.724;9.898;2022-08-21T14:19:08;2.55;;;1.08;;
40515;SDS011;26216;53.724;9.898;2022-08-21T14:21:39;1.48;;;0.90;;
40515;SDS011;26216;53.724;9.898;2022-08-21T14:24:10;3.03;;;1.10;;
40515;SDS011;26216;53.724;9.898;2022-08-21T14:26:49;2.30;;;1.17;;
40515;SDS011;26216;53.724;9.898;2022-08-21T14:29:18;2.33;;;1.00;;
40515;SDS011;26216;53.724;9.898;2022-08-21T14:31:55;1.75;;;1.10;;
40515;SDS011;26216;53.724;9.898;2022-08-21T14:34:26;1.77;;;0.90;;
40515;SDS011;26216;53.724;9.898;2022-08-21T14:36:54;2.65;;;0.90;;
40515;SDS011;26216;53.724;9.898;2022-08-21T14:39:21;9.20;;;8.18;;
40515;SDS011;26216;53.724;9.898;2022-08-21T14:41:48;6.50;;;5.50;;
40515;SDS011;26216;53.724;9.898;2022-08-21T14:44:15;4.07;;;3.25;;
40515;SDS011;26216;53.724;9.898;2022-08-21T14:46:42;3.20;;;1.60;;
40515;SDS011;26216;53.724;9.898;2022-08-21T14:49:09;3.22;;;1.20;;
40515;SDS011;26216;53.724;9.898;2022-08-21T14:51:35;3.97;;;2.30;;
40515;SDS011;26216;53.724;9.898;2022-08-21T14:54:01;6.28;;;5.40;;
40515;SDS011;26216;53.724;9.898;2022-08-21T14:56:27;5.30;;;4.72;;
40515;SDS011;26216;53.724;9.898;2022-08-21T14:58:53;1.85;;;1.48;;
40515;SDS011;26216;53.724;9.898;2022-08-21T15:01:24;3.03;;;2.33;;
40515;SDS011;26216;53.724;9.898;2022-08-21T15:03:49;3.13;;;1.30;;
40515;SDS011;26216;53.724;9.898;2022-08-21T15:06:16;1.70;;;1.00;;
40515;SDS011;26216;53.724;9.898;2022-08-21T15:08:43;1.42;;;0.80;;
40515;SDS011;26216;53.724;9.898;2022-08-21T15:11:10;2.33;;;1.20;;
40515;SDS011;26216;53.724;9.898;2022-08-21T15:13:48;1.23;;;0.70;;
40515;SDS011;26216;53.724;9.898;2022-08-21T15:16:21;2.95;;;1.00;;
40515;SDS011;26216;53.724;9.898;2022-08-21T15:18:48;1.75;;;0.88;;
40515;SDS011;26216;53.724;9.898;2022-08-21T15:21:14;1.00;;;0.70;;
40515;SDS011;26216;53.724;9.898;2022-08-21T15:23:40;1.67;;;0.77;;
40515;SDS011;26216;53.724;9.898;2022-08-21T15:26:06;1.02;;;0.65;;
40515;SDS011;26216;53.724;9.898;2022-08-21T15:28:33;1.83;;;1.00;;
40515;SDS011;26216;53.724;9.898;2022-08-21T15:30:59;1.75;;;0.85;;
40515;SDS011;26216;53.724;9.898;2022-08-21T15:33:26;1.10;;;0.70;;
40515;SDS011;26216;53.724;9.898;2022-08-21T15:35:52;1.83;;;1.15;;
40515;SDS011;26216;53.724;9.898;2022-08-21T15:38:18;1.08;;;0.77;;
40515;SDS011;26216;53.724;9.898;2022-08-21T15:40:44;2.15;;;1.02;;
40515;SDS011;26216;53.724;9.898;2022-08-21T15:43:29;2.33;;;1.25;;
40515;SDS011;26216;53.724;9.898;2022-08-21T15:46:00;1.92;;;1.20;;
40515;SDS011;26216;53.724;9.898;2022-08-21T15:48:27;1.75;;;1.25;;
40515;SDS011;26216;53.724;9.898;2022-08-21T15:50:53;1.60;;;1.10;;
40515;SDS011;26216;53.724;9.898;2022-08-21T15:53:19;2.90;;;0.95;;
40515;SDS011;26216;53.724;9.898;2022-08-21T15:55:45;2.70;;;1.40;;
40515;SDS011;26216;53.724;9.898;2022-08-21T15:58:12;2.22;;;1.10;;
40515;SDS011;26216;53.724;9.898;2022-08-21T16:00:41;2.10;;;0.98;;
40515;SDS011;26216;53.724;9.898;2022-08-21T16:03:09;3.33;;;1.20;;
40515;SDS011;26216;53.724;9.898;2022-08-21T16:05:42;2.47;;;1.00;;
40515;SDS011;26216;53.724;9.898;2022-08-21T16:08:09;1.92;;;1.00;;
40515;SDS011;26216;53.724;9.898;2022-08-21T16:10:36;1.75;;;0.82;;
40515;SDS011;26216;53.724;9.898;2022-08-21T16:13:06;1.95;;;0.80;;
40515;SDS011;26216;53.724;9.898;2022-08-21T16:15:35;1.08;;;0.60;;
40515;SDS011;26216;53.724;9.898;2022-08-21T16:18:01;1.35;;;0.70;;
40515;SDS011;26216;53.724;9.898;2022-08-21T16:20:27;1.50;;;0.80;;
40515;SDS011;26216;53.724;9.898;2022-08-21T16:22:54;1.73;;;0.90;;
40515;SDS011;26216;53.724;9.898;2022-08-21T16:25:21;1.23;;;0.70;;
40515;SDS011;26216;53.724;9.898;2022-08-21T16:27:53;2.03;;;0.90;;
40515;SDS011;26216;53.724;9.898;2022-08-21T16:30:22;3.70;;;1.30;;
40515;SDS011;26216;53.724;9.898;2022-08-21T16:32:48;2.13;;;0.90;;
40515;SDS011;26216;53.724;9.898;2022-08-21T16:35:17;1.75;;;1.20;;
40515;SDS011;26216;53.724;9.898;2022-08-21T16:37:44;3.47;;;0.95;;
40515;SDS011;26216;53.724;9.898;2022-08-21T16:40:11;2.03;;;1.00;;
40515;SDS011;26216;53.724;9.898;2022-08-21T16:42:37;1.98;;;0.68;;
40515;SDS011;26216;53.724;9.898;2022-08-21T16:45:05;1.70;;;0.82;;
40515;SDS011;26216;53.724;9.898;2022-08-21T16:47:36;1.92;;;0.75;;
40515;SDS011;26216;53.724;9.898;2022-08-21T16:50:03;1.83;;;0.88;;
40515;SDS011;26216;53.724;9.898;2022-08-21T16:52:31;1.52;;;0.90;;
40515;SDS011;26216;53.724;9.898;2022-08-21T16:55:04;2.80;;;1.20;;
40515;SDS011;26216;53.724;9.898;2022-08-21T16:57:30;4.25;;;0.90;;
40515;SDS011;26216;53.724;9.898;2022-08-21T16:59:57;3.30;;;1.30;;
40515;SDS011;26216;53.724;9.898;2022-08-21T17:02:30;1.65;;;0.85;;
40515;SDS011;26216;53.724;9.898;2022-08-21T17:05:04;1.45;;;0.98;;
40515;SDS011;26216;53.724;9.898;2022-08-21T17:07:31;2.03;;;1.00;;
40515;SDS011;26216;53.724;9.898;2022-08-21T17:09:57;1.95;;;1.02;;
40515;SDS011;26216;53.724;9.898;2022-08-21T17:12:23;2.28;;;0.82;;
40515;SDS011;26216;53.724;9.898;2022-08-21T17:14:50;2.20;;;0.98;;
40515;SDS011;26216;53.724;9.898;2022-08-21T17:17:16;1.75;;;1.05;;
40515;SDS011;26216;53.724;9.898;2022-08-21T17:19:43;1.75;;;0.68;;
40515;SDS011;26216;53.724;9.898;2022-08-21T17:22:09;1.20;;;0.80;;
40515;SDS011;26216;53.724;9.898;2022-08-21T17:24:36;2.25;;;1.00;;
40515;SDS011;26216;53.724;9.898;2022-08-21T17:27:02;3.30;;;0.90;;
40515;SDS011;26216;53.724;9.898;2022-08-21T17:29:36;4.10;;;1.38;;
40515;SDS011;26216;53.724;9.898;2022-08-21T17:32:06;1.70;;;0.82;;
40515;SDS011;26216;53.724;9.898;2022-08-21T17:37:02;2.95;;;0.90;;
40515;SDS011;26216;53.724;9.898;2022-08-21T17:39:28;2.70;;;1.08;;
40515;SDS011;26216;53.724;9.898;2022-08-21T17:41:54;1.70;;;1.05;;
40515;SDS011;26216;53.724;9.898;2022-08-21T17:44:21;1.38;;;0.80;;
40515;SDS011;26216;53.724;9.898;2022-08-21T17:46:47;2.80;;;1.38;;
40515;SDS011;26216;53.724;9.898;2022-08-21T17:49:14;3.70;;;1.13;;
40515;SDS011;26216;53.724;9.898;2022-08-21T17:51:40;2.83;;;0.98;;
40515;SDS011;26216;53.724;9.898;2022-08-21T17:54:06;2.05;;;0.95;;
40515;SDS011;26216;53.724;9.898;2022-08-21T17:56:33;2.80;;;1.10;;
40515;SDS011;26216;53.724;9.898;2022-08-21T17:59:04;4.95;;;1.17;;
40515;SDS011;26216;53.724;9.898;2022-08-21T18:01:34;5.60;;;1.27;;
40515;SDS011;26216;53.724;9.898;2022-08-21T18:04:03;4.00;;;1.23;;
40515;SDS011;26216;53.724;9.898;2022-08-21T18:06:30;4.57;;;1.55;;
40515;SDS011;26216;53.724;9.898;2022-08-21T18:08:56;2.97;;;1.30;;
40515;SDS011;26216;53.724;9.898;2022-08-21T18:11:23;3.17;;;1.10;;
40515;SDS011;26216;53.724;9.898;2022-08-21T18:13:51;5.50;;;1.23;;
40515;SDS011;26216;53.724;9.898;2022-08-21T18:16:20;3.05;;;0.90;;
40515;SDS011;26216;53.724;9.898;2022-08-21T18:18:47;6.45;;;1.60;;
40515;SDS011;26216;53.724;9.898;2022-08-21T18:21:15;3.75;;;1.55;;
40515;SDS011;26216;53.724;9.898;2022-08-21T18:23:41;2.25;;;1.02;;
40515;SDS011;26216;53.724;9.898;2022-08-21T18:26:07;3.88;;;1.20;;
40515;SDS011;26216;53.724;9.898;2022-08-21T18:28:34;3.28;;;1.10;;
40515;SDS011;26216;53.724;9.898;2022-08-21T18:31:02;3.10;;;1.40;;